Time;durP1;ratioP1;P1;durP2;ratioP2;P2;SDS_P1;SDS_P2;PMS_P1;PMS_P2;Temp;Humidity;BMP_temperature;BMP_pressure;BME280_temperature;BME280_humidity;BME280_pressure;Samples;Min_cycle;Max_cycle;Signal;HPM_P1;HPM_P2
2023/12/09 00:01:06;;;;;;;42.27;21.13;;;;;;;-143.21;82.16;73702.59;5015546;28;20205;-84
2023/12/09 00:03:33;;;;;;;41.20;21.80;;;;;;;-143.21;83.49;73726.41;5014089;28;20205;-85
2023/12/09 00:06:00;;;;;;;40.07;20.73;;;;;;;-143.21;84.29;73728.41;5026144;28;20210;-85
2023/12/09 00:08:27;;;;;;;37.77;21.33;;;;;;;-143.21;84.92;73720.47;5032997;28;20576;-85
2023/12/09 00:10:54;;;;;;;43.70;23.00;;;;;;;-143.21;85.05;73708.56;5032284;28;20198;-85
2023/12/09 00:13:23;;;;;;;45.90;23.03;;;;;;;-143.21;85.03;73700.63;5032615;28;20315;-86
2023/12/09 00:15:50;;;;;;;42.87;22.93;;;;;;;-143.21;84.80;73700.63;5020131;28;20211;-84
2023/12/09 00:18:17;;;;;;;47.53;22.43;;;;;;;-143.21;84.97;73698.63;5012210;28;20195;-84
2023/12/09 00:20:44;;;;;;;41.50;22.00;;;;;;;-143.21;84.44;73688.72;5012609;28;20198;-85
2023/12/09 00:23:11;;;;;;;46.17;22.77;;;;;;;-143.21;84.27;73688.72;5012953;28;20196;-84
2023/12/09 00:25:38;;;;;;;39.20;21.40;;;;;;;-143.21;84.78;73690.69;5012169;28;20321;-85
2023/12/09 00:28:05;;;;;;;40.30;22.30;;;;;;;-143.21;84.73;73678.78;5011407;28;20554;-84
2023/12/09 00:30:33;;;;;;;44.73;22.87;;;;;;;-143.21;84.49;73674.81;5012127;28;20219;-84
2023/12/09 00:33:00;;;;;;;43.07;22.77;;;;;;;-143.21;84.45;73674.81;5012426;28;20199;-84
2023/12/09 00:35:27;;;;;;;41.93;22.50;;;;;;;-143.21;84.19;73662.94;5012366;28;20298;-84
2023/12/09 00:37:54;;;;;;;40.50;22.07;;;;;;;-143.21;83.67;73658.97;5012442;28;20206;-85
2023/12/09 00:40:21;;;;;;;42.17;23.30;;;;;;;-143.21;83.63;73660.94;5012055;28;20187;-85
2023/12/09 00:42:48;;;;;;;47.87;25.00;;;;;;;-143.21;83.65;73664.91;5012496;28;20199;-85
2023/12/09 00:45:15;;;;;;;44.23;24.03;;;;;;;-143.21;84.05;73664.91;5005172;28;20219;-84
2023/12/09 00:47:43;;;;;;;42.67;22.37;;;;;;;-143.21;83.07;73696.66;4993171;28;20196;-84
2023/12/09 00:50:11;;;;;;;47.93;23.27;;;;;;;-143.21;83.10;73726.41;4992810;28;20226;-84
2023/12/09 00:52:38;;;;;;;41.33;21.73;;;;;;;-143.21;84.26;73748.22;4992513;28;20668;-85
2023/12/09 00:55:06;;;;;;;43.30;23.13;;;;;;;-143.21;85.03;73748.22;5001064;28;20196;-84
2023/12/09 00:57:33;;;;;;;47.70;24.17;;;;;;;-143.21;85.58;73752.19;5008094;28;20200;-83
2023/12/09 01:00:04;;;;;;;43.90;23.53;;;;;;;-143.21;86.02;73748.22;5001591;28;20195;-85
2023/12/09 01:02:32;;;;;;;44.60;23.27;;;;;;;-143.21;85.83;73730.38;5010940;28;20188;-84
2023/12/09 01:05:00;;;;;;;46.23;23.13;;;;;;;-143.21;86.06;73722.44;5010571;28;20196;-82
2023/12/09 01:07:28;;;;;;;35.63;20.57;;;;;;;-143.21;85.64;73712.53;5010999;28;20190;-84
2023/12/09 01:09:58;;;;;;;35.73;19.87;;;;;;;-143.21;85.15;73704.59;5012112;28;20208;-84
2023/12/09 01:12:26;;;;;;;35.83;18.07;;;;;;;-143.21;85.01;73706.56;5018789;28;20220;-84
2023/12/09 01:14:53;;;;;;;28.83;15.20;;;;;;;-143.21;84.82;73710.53;5031305;28;20205;-85
2023/12/09 01:17:20;;;;;;;28.00;13.93;;;;;;;-143.21;85.01;73706.56;5026330;28;20200;-86
2023/12/09 01:19:47;;;;;;;24.20;13.07;;;;;;;-143.21;84.72;73692.69;5012052;28;20613;-86
2023/12/09 01:22:15;;;;;;;20.87;12.50;;;;;;;-143.21;84.44;73686.72;5012352;28;20710;-85
2023/12/09 01:24:42;;;;;;;21.47;11.67;;;;;;;-143.21;84.08;73684.75;5011567;28;20202;-85
2023/12/09 01:27:09;;;;;;;19.17;11.43;;;;;;;-143.21;82.62;73676.81;5014448;28;20250;-84
2023/12/09 01:29:37;;;;;;;20.87;11.80;;;;;;;-143.21;82.93;73730.38;5016145;28;20222;-85
2023/12/09 01:32:04;;;;;;;21.40;11.83;;;;;;;-143.21;83.33;73764.09;5013021;28;20266;-83
2023/12/09 01:34:31;;;;;;;22.67;12.87;;;;;;;-143.21;84.43;73752.19;5013559;28;20201;-85
2023/12/09 01:36:58;;;;;;;21.97;12.17;;;;;;;-143.21;84.78;73740.28;5012501;28;20202;-83
2023/12/09 01:39:27;;;;;;;22.20;12.13;;;;;;;-143.21;85.03;73730.38;5012893;28;20194;-83
2023/12/09 01:41:54;;;;;;;21.50;11.93;;;;;;;-143.21;85.04;73714.50;5015456;28;20239;-83
2023/12/09 01:44:20;;;;;;;21.40;11.80;;;;;;;-143.21;84.42;73702.59;5015736;28;20215;-84
2023/12/09 01:46:48;;;;;;;21.23;12.63;;;;;;;-143.21;84.15;73696.66;5015685;28;20222;-83
2023/12/09 01:49:15;;;;;;;19.83;12.10;;;;;;;-143.21;83.78;73692.69;5018348;28;20588;-83
2023/12/09 01:51:44;;;;;;;22.57;12.90;;;;;;;-143.21;83.52;73684.75;5015484;28;20695;-83
2023/12/09 01:54:12;;;;;;;19.53;12.13;;;;;;;-143.21;82.98;73676.81;5015731;28;20227;-84
2023/12/09 01:56:40;;;;;;;20.90;12.07;;;;;;;-143.21;82.78;73670.84;5016013;28;20198;-86
2023/12/09 01:59:07;;;;;;;21.77;12.20;;;;;;;-143.21;82.31;73664.91;5015461;28;20205;-85
2023/12/09 02:01:36;;;;;;;21.63;12.43;;;;;;;-143.21;82.15;73670.84;5015539;28;20196;-84
2023/12/09 02:04:04;;;;;;;20.67;12.00;;;;;;;-143.21;82.18;73660.94;5015524;28;20253;-85
2023/12/09 02:06:30;;;;;;;21.87;12.20;;;;;;;-143.21;82.43;73662.94;5015115;28;20689;-84
2023/12/09 02:08:58;;;;;;;21.03;11.83;;;;;;;-143.21;82.01;73658.97;5015480;28;20206;-83
2023/12/09 02:11:33;;;;;;;23.87;13.47;;;;;;;-143.21;81.90;73653.00;5016565;28;20278;-84
2023/12/09 02:14:08;;;;;;;29.53;16.60;;;;;;;-143.21;81.42;73655.00;4995746;28;20181;-84
2023/12/09 02:16:43;;;;;;;29.90;16.60;;;;;;;-143.21;81.11;73700.63;5012818;28;20230;-83
2023/12/09 02:19:13;;;;;;;29.67;16.20;;;;;;;-143.21;81.81;73742.28;5014994;28;20194;-82
2023/12/09 02:22:03;;;;;;;25.67;15.23;;;;;;;-143.21;83.88;73758.16;5014826;28;20182;-83
2023/12/09 02:24:32;;;;;;;26.23;14.40;;;;;;;-143.21;84.44;73758.16;5014763;28;20220;-84
2023/12/09 02:27:04;;;;;;;24.90;15.20;;;;;;;-143.21;84.53;73740.28;5014326;28;20200;-82
2023/12/09 02:29:36;;;;;;;29.13;15.23;;;;;;;-143.21;84.52;73736.34;5014664;28;20760;-83
2023/12/09 02:32:06;;;;;;;29.57;16.27;;;;;;;-143.21;83.98;73732.38;5014938;28;20269;-83
2023/12/09 02:34:37;;;;;;;35.13;17.90;;;;;;;-143.21;83.95;73730.38;5014544;28;20561;-85
2023/12/09 02:37:05;;;;;;;31.47;17.83;;;;;;;-143.21;84.03;73724.44;5014344;28;20205;-85
2023/12/09 02:39:34;;;;;;;34.00;18.27;;;;;;;-143.21;84.21;73706.56;5014224;28;20195;-83
2023/12/09 02:42:05;;;;;;;36.83;19.67;;;;;;;-143.21;83.97;73702.59;5015090;28;20225;-84
2023/12/09 02:44:32;;;;;;;32.10;18.10;;;;;;;-143.21;83.77;73700.63;5014480;28;20184;-84
2023/12/09 02:46:59;;;;;;;31.53;17.93;;;;;;;-143.21;83.02;73716.50;5013846;28;20235;-84
2023/12/09 02:49:25;;;;;;;33.20;17.43;;;;;;;-143.21;82.95;73740.28;5013966;28;20378;-84
2023/12/09 02:51:52;;;;;;;30.43;16.00;;;;;;;-143.21;83.65;73740.28;5012769;28;20206;-83
2023/12/09 02:54:19;;;;;;;32.07;16.60;;;;;;;-143.21;84.26;73748.22;5014197;28;20205;-84
2023/12/09 02:56:47;;;;;;;32.67;17.43;;;;;;;-143.21;84.61;73728.41;5013985;28;20199;-85
2023/12/09 02:59:14;;;;;;;28.17;14.77;;;;;;;-143.21;84.80;73714.50;5013724;28;20206;-86
2023/12/09 03:01:41;;;;;;;25.33;14.77;;;;;;;-143.21;84.37;73708.56;5013082;28;20199;-85
2023/12/09 03:04:08;;;;;;;28.13;15.17;;;;;;;-143.21;83.89;73700.63;5013318;28;20968;-85
2023/12/09 03:06:34;;;;;;;26.33;14.77;;;;;;;-143.21;83.71;73704.59;5013854;28;20584;-84
2023/12/09 03:09:01;;;;;;;28.77;15.57;;;;;;;-143.21;83.54;73704.59;5013596;28;20682;-84
2023/12/09 03:11:28;;;;;;;28.63;14.70;;;;;;;-143.21;83.53;73692.69;5013831;28;20223;-84
2023/12/09 03:13:56;;;;;;;26.03;15.03;;;;;;;-143.21;82.94;73686.72;5032673;28;20230;-84
2023/12/09 03:16:23;;;;;;;24.73;14.63;;;;;;;-143.21;82.71;73686.72;5033537;28;20198;-83
2023/12/09 03:18:50;;;;;;;28.03;15.60;;;;;;;-143.21;82.57;73682.75;5034385;28;20206;-84
2023/12/09 03:21:17;;;;;;;29.50;16.03;;;;;;;-143.21;82.34;73684.75;5033422;28;20654;-83
2023/12/09 03:23:44;;;;;;;29.40;16.53;;;;;;;-143.21;81.86;73686.72;5032743;28;20201;-83
2023/12/09 03:26:15;;;;;;;25.27;15.17;;;;;;;-143.21;81.70;73690.69;5033806;28;20190;-84
2023/12/09 03:28:42;;;;;;;31.67;15.43;;;;;;;-143.21;81.97;73692.69;5034460;28;20195;-83
2023/12/09 03:31:13;;;;;;;34.00;17.53;;;;;;;-143.21;81.93;73698.63;5038893;28;20257;-83
2023/12/09 03:33:40;;;;;;;32.97;17.67;;;;;;;-143.21;81.87;73706.56;5034002;28;20265;-83
2023/12/09 03:36:08;;;;;;;31.20;16.67;;;;;;;-143.21;81.65;73732.38;5034244;28;20202;-86
2023/12/09 03:38:35;;;;;;;26.43;15.13;;;;;;;-143.21;81.95;73762.13;5033201;28;20198;-84
2023/12/09 03:41:04;;;;;;;32.80;17.70;;;;;;;-143.21;83.02;73785.94;5033150;28;20197;-84
2023/12/09 03:43:30;;;;;;;32.60;17.43;;;;;;;-143.21;84.21;73793.88;5032866;28;20626;-85
2023/12/09 03:45:58;;;;;;;35.50;18.00;;;;;;;-143.21;84.72;73783.94;5020004;28;20210;-83
2023/12/09 03:48:26;;;;;;;35.90;19.53;;;;;;;-143.21;84.83;73764.09;5013618;28;20199;-84
2023/12/09 03:50:53;;;;;;;34.40;18.93;;;;;;;-143.21;84.60;73758.16;5013437;28;20216;-84
2023/12/09 03:53:19;;;;;;;33.43;19.13;;;;;;;-143.21;84.75;73750.22;5013256;28;20207;-84
2023/12/09 03:55:46;;;;;;;32.37;18.77;;;;;;;-143.21;84.62;73744.25;5012798;28;20203;-82
2023/12/09 03:58:13;;;;;;;36.97;19.93;;;;;;;-143.21;84.31;73744.25;5013252;28;20194;-83
2023/12/09 04:00:40;;;;;;;35.30;19.37;;;;;;;-143.21;84.25;73750.22;5012658;28;20199;-82
2023/12/09 04:03:07;;;;;;;33.10;18.93;;;;;;;-143.21;84.52;73748.22;5012925;28;20336;-82
2023/12/09 04:05:35;;;;;;;33.70;19.43;;;;;;;-143.21;84.27;73744.25;5012611;28;20587;-84
2023/12/09 04:08:02;;;;;;;35.10;18.73;;;;;;;-143.21;84.12;73744.25;5012602;28;20206;-85
2023/12/09 04:10:29;;;;;;;32.87;18.77;;;;;;;-143.21;83.86;73746.25;5012528;28;20230;-85
2023/12/09 04:12:55;;;;;;;32.77;18.53;;;;;;;-143.21;83.54;73750.22;5012347;28;20233;-84
2023/12/09 04:15:22;;;;;;;41.03;21.33;;;;;;;-143.21;82.76;73785.94;5020258;28;20665;-83
2023/12/09 04:17:49;;;;;;;40.00;22.60;;;;;;;-143.21;82.31;73821.63;5033233;28;20202;-84
2023/12/09 04:20:16;;;;;;;40.70;22.67;;;;;;;-143.21;83.66;73835.53;5032149;28;20212;-85
2023/12/09 04:22:45;;;;;;;40.40;22.60;;;;;;;-143.21;84.85;73843.47;5031744;28;20237;-84
2023/12/09 04:25:12;;;;;;;36.27;20.20;;;;;;;-143.21;85.63;73839.50;5031594;28;20197;-85
2023/12/09 04:27:39;;;;;;;29.87;17.13;;;;;;;-143.21;85.59;73819.66;5031944;28;20201;-84
2023/12/09 04:30:07;;;;;;;39.27;22.13;;;;;;;-143.21;85.35;73809.75;5031303;28;20728;-84
2023/12/09 04:32:35;;;;;;;36.77;20.40;;;;;;;-143.21;84.76;73835.53;5031711;28;20198;-83
2023/12/09 04:35:02;;;;;;;35.50;19.73;;;;;;;-143.21;85.26;73859.34;5032048;28;20579;-84
2023/12/09 04:37:29;;;;;;;38.97;21.27;;;;;;;-143.21;85.81;73855.38;5031224;28;20205;-84
2023/12/09 04:39:57;;;;;;;38.50;20.53;;;;;;;-143.21;87.15;73847.44;5031399;28;20214;-85
2023/12/09 04:42:24;;;;;;;39.67;21.67;;;;;;;-143.21;87.77;73827.59;5031693;28;20201;-85
2023/12/09 04:44:51;;;;;;;43.37;25.33;;;;;;;-143.21;87.50;73807.75;5027692;28;20214;-86
2023/12/09 04:47:18;;;;;;;47.27;26.13;;;;;;;-143.21;87.38;73801.81;5012119;28;20191;-86
2023/12/09 04:49:45;;;;;;;43.00;24.97;;;;;;;-143.21;87.06;73781.97;5011887;28;20230;-85
2023/12/09 04:52:12;;;;;;;39.43;22.17;;;;;;;-143.21;85.63;73772.03;5011584;28;20225;-85
2023/12/09 04:54:39;;;;;;;43.73;23.87;;;;;;;-143.21;85.42;73758.16;5011887;28;20202;-84
2023/12/09 04:57:07;;;;;;;43.10;23.90;;;;;;;-143.21;84.96;73752.19;5012205;28;20593;-84
2023/12/09 04:59:34;;;;;;;39.03;23.03;;;;;;;-143.21;85.09;73756.16;5011734;28;20257;-84
2023/12/09 05:02:01;;;;;;;46.30;23.53;;;;;;;-143.21;85.22;73752.19;5012549;28;20200;-84
2023/12/09 05:04:28;;;;;;;43.17;23.23;;;;;;;-143.21;85.42;73746.25;5013997;28;20686;-82
2023/12/09 05:06:55;;;;;;;33.13;20.20;;;;;;;-143.21;84.56;73748.22;5014275;28;20603;-82
2023/12/09 05:09:22;;;;;;;38.70;21.30;;;;;;;-143.21;84.54;73742.28;5012424;28;20202;-83
2023/12/09 05:11:49;;;;;;;41.47;22.47;;;;;;;-143.21;84.73;73732.38;5012065;28;20222;-84
2023/12/09 05:14:17;;;;;;;41.10;22.80;;;;;;;-143.21;84.65;73730.38;5012545;28;20187;-82
2023/12/09 05:16:44;;;;;;;33.47;18.87;;;;;;;-143.21;84.43;73732.38;5034640;28;20725;-83
2023/12/09 05:19:11;;;;;;;36.70;19.37;;;;;;;-143.21;84.03;73722.44;5035905;28;20202;-83
2023/12/09 05:21:38;;;;;;;35.37;20.30;;;;;;;-143.21;83.86;73716.50;5035688;28;20191;-84
2023/12/09 05:24:05;;;;;;;32.63;19.07;;;;;;;-143.21;83.10;73720.47;5035475;28;20207;-84
2023/12/09 05:26:33;;;;;;;39.63;22.37;;;;;;;-143.21;81.50;73740.28;5035244;28;20666;-83
2023/12/09 05:29:00;;;;;;;36.77;19.57;;;;;;;-143.21;82.22;73778.00;5035293;28;20230;-83
2023/12/09 05:31:28;;;;;;;37.50;19.87;;;;;;;-143.21;83.45;73791.88;5035693;28;20257;-83
2023/12/09 05:33:55;;;;;;;35.37;19.77;;;;;;;-143.21;84.52;73787.91;5036419;28;20206;-84
2023/12/09 05:36:22;;;;;;;40.60;21.37;;;;;;;-143.21;84.79;73776.00;5035048;28;20222;-84
2023/12/09 05:38:48;;;;;;;42.63;20.60;;;;;;;-143.21;84.91;73760.13;5035785;28;20202;-84
2023/12/09 05:41:15;;;;;;;32.83;19.17;;;;;;;-143.21;84.41;73750.22;5035169;28;20206;-84
2023/12/09 05:43:43;;;;;;;24.70;13.83;;;;;;;-143.21;84.04;73734.34;5035285;28;20203;-84
2023/12/09 05:46:18;;;;;;;24.40;13.20;;;;;;;-143.21;83.82;73724.44;5020235;28;20211;-84
2023/12/09 05:48:47;;;;;;;21.20;12.63;;;;;;;-143.21;83.68;73722.44;5015675;28;20191;-84
2023/12/09 05:51:14;;;;;;;18.47;11.47;;;;;;;-143.21;83.54;73720.47;5015206;28;20224;-83
2023/12/09 05:53:41;;;;;;;19.57;11.37;;;;;;;-143.21;83.26;73716.50;5015569;28;20665;-83
2023/12/09 05:56:09;;;;;;;19.50;11.07;;;;;;;-143.21;83.15;73708.56;5015100;28;20191;-84
2023/12/09 05:58:36;;;;;;;21.27;13.27;;;;;;;-143.21;82.79;73704.59;5015071;28;20716;-83
2023/12/09 06:01:04;;;;;;;20.73;13.07;;;;;;;-143.21;82.57;73696.66;5014966;28;20192;-84
2023/12/09 06:03:30;;;;;;;18.70;11.67;;;;;;;-143.21;82.09;73716.50;5015250;28;20200;-83
2023/12/09 06:05:59;;;;;;;26.67;14.67;;;;;;;-143.21;80.99;73724.44;5016641;28;20651;-83
2023/12/09 06:08:25;;;;;;;24.20;14.57;;;;;;;-143.21;81.47;73746.25;5015166;28;20202;-83
2023/12/09 06:10:52;;;;;;;28.50;15.33;;;;;;;-143.21;82.88;73752.19;5016019;28;20226;-84
2023/12/09 06:13:19;;;;;;;45.73;22.93;;;;;;;-143.21;83.23;73760.13;5014580;28;20234;-84
2023/12/09 06:15:46;;;;;;;72.03;34.83;;;;;;;-143.21;83.03;73752.19;5026321;28;20211;-86
2023/12/09 06:18:13;;;;;;;65.37;34.63;;;;;;;-143.21;82.83;73746.25;5034734;28;20206;-84
2023/12/09 06:20:40;;;;;;;45.50;23.63;;;;;;;-143.21;81.61;73748.22;5034242;28;20240;-85
2023/12/09 06:23:08;;;;;;;40.63;21.73;;;;;;;-143.21;81.46;73748.22;5034815;28;20190;-84
2023/12/09 06:25:35;;;;;;;48.20;24.87;;;;;;;-143.21;81.69;73764.09;5033374;28;20187;-85
2023/12/09 06:28:02;;;;;;;44.13;23.33;;;;;;;-143.21;82.03;73766.09;5036209;28;20191;-87
2023/12/09 06:30:29;;;;;;;35.50;20.47;;;;;;;-143.21;82.02;73783.94;5033915;28;20198;-74
2023/12/09 06:32:56;;;;;;;36.17;20.27;;;;;;;-143.21;82.07;73781.97;5033083;28;20282;-76
2023/12/09 06:35:23;;;;;;;38.73;20.77;;;;;;;-143.21;81.94;73774.03;5033230;28;20201;-75
2023/12/09 06:37:49;;;;;;;35.20;20.30;;;;;;;-143.21;82.17;73776.00;5028210;28;20199;-75
2023/12/09 06:40:18;;;;;;;40.40;23.43;;;;;;;-143.21;82.05;73768.06;5031900;28;20203;-75
2023/12/09 06:42:44;;;;;;;47.17;26.80;;;;;;;-143.21;81.84;73778.00;5032668;28;20205;-76
2023/12/09 06:45:12;;;;;;;53.10;29.07;;;;;;;-143.21;82.30;73785.94;5032366;28;20657;-76
2023/12/09 06:47:39;;;;;;;57.30;29.80;;;;;;;-143.21;82.86;73778.00;5032109;28;20191;-76
2023/12/09 06:50:07;;;;;;;56.93;30.27;;;;;;;-143.21;82.65;73778.00;5032508;28;20206;-77
2023/12/09 06:52:33;;;;;;;63.10;33.37;;;;;;;-143.21;82.28;73770.06;5032417;28;20275;-77
2023/12/09 06:55:00;;;;;;;53.43;27.17;;;;;;;-143.21;81.58;73778.00;5032675;28;20253;-77
2023/12/09 06:57:29;;;;;;;49.90;25.77;;;;;;;-143.21;81.66;73785.94;5032340;28;20706;-76
2023/12/09 06:59:56;;;;;;;48.00;25.87;;;;;;;-143.21;82.65;73779.97;5032022;28;20190;-77
2023/12/09 07:02:23;;;;;;;48.53;24.90;;;;;;;-143.21;82.38;73774.03;5029927;28;20547;-76
2023/12/09 07:04:50;;;;;;;42.20;22.33;;;;;;;-143.21;82.05;73770.06;5029224;28;20223;-76
2023/12/09 07:07:17;;;;;;;40.93;22.87;;;;;;;-143.21;82.45;73772.03;5031968;28;20261;-77
2023/12/09 07:09:44;;;;;;;40.93;21.90;;;;;;;-143.21;82.70;73781.97;5023490;28;20214;-77
2023/12/09 07:12:10;;;;;;;38.53;21.23;;;;;;;-143.21;82.98;73779.97;5021023;28;20233;-78
2023/12/09 07:14:39;;;;;;;36.23;19.50;;;;;;;-143.21;82.81;73770.06;5023775;28;20179;-76
2023/12/09 07:17:05;;;;;;;35.00;19.87;;;;;;;-143.21;81.98;73744.25;5032176;28;20288;-78
2023/12/09 07:19:32;;;;;;;42.33;22.97;;;;;;;-143.21;81.38;73720.47;5030845;28;20198;-78
2023/12/09 07:21:59;;;;;;;44.00;25.50;;;;;;;-143.21;81.16;73712.53;5032139;28;20320;-77
2023/12/09 07:24:26;;;;;;;36.83;20.80;;;;;;;-143.21;80.81;73706.56;5026247;28;20187;-76
2023/12/09 07:26:53;;;;;;;36.33;19.20;;;;;;;-143.21;79.79;73698.63;5032224;28;20195;-86
2023/12/09 07:29:25;;;;;;;32.33;17.33;;;;;;;-143.21;78.74;73696.66;5033453;28;20199;-88
2023/12/09 07:31:53;;;;;;;33.03;19.03;;;;;;;-143.21;78.76;73716.50;5028160;28;20227;-77
2023/12/09 07:34:20;;;;;;;37.07;20.17;;;;;;;-143.21;79.29;73712.53;5024206;28;20600;-76
2023/12/09 07:36:47;;;;;;;33.60;18.13;;;;;;;-143.21;79.37;73712.53;5023923;28;20218;-78
2023/12/09 07:39:14;;;;;;;33.93;19.03;;;;;;;-143.21;79.13;73700.63;5031317;28;20226;-78
2023/12/09 07:41:43;;;;;;;39.20;20.13;;;;;;;-143.21;78.61;73692.69;5031239;28;20194;-76
2023/12/09 07:44:09;;;;;;;35.90;19.67;;;;;;;-143.21;79.26;73670.84;5032690;28;20261;-89
2023/12/09 07:46:37;;;;;;;28.73;15.90;;;;;;;-143.21;78.14;73676.81;5034642;28;20191;-83
2023/12/09 07:49:05;;;;;;;30.07;16.53;;;;;;;-143.21;77.29;73684.75;5035009;28;20191;-88
2023/12/09 07:51:32;;;;;;;28.30;15.70;;;;;;;-143.21;77.49;73694.66;5034848;28;20226;-84
2023/12/09 07:53:58;;;;;;;30.57;16.33;;;;;;;-143.21;77.82;73702.59;5039516;28;20198;-83
2023/12/09 07:56:25;;;;;;;31.73;18.40;;;;;;;-143.21;78.27;73702.59;5034787;28;20195;-82
2023/12/09 07:58:52;;;;;;;39.50;21.17;;;;;;;-143.21;78.22;73700.63;5032825;28;20653;-83
2023/12/09 08:01:19;;;;;;;36.80;20.63;;;;;;;-143.21;77.94;73698.63;5032708;28;20194;-81
2023/12/09 08:03:46;;;;;;;23.43;14.20;;;;;;;-143.21;78.00;73698.63;5033220;28;20199;-82
2023/12/09 08:06:14;;;;;;;19.57;11.80;;;;;;;-143.21;77.52;73678.78;5032990;28;20199;-83
2023/12/09 08:08:41;;;;;;;23.60;14.13;;;;;;;-143.21;77.50;73674.81;5033039;28;20206;-82
2023/12/09 08:11:08;;;;;;;21.17;12.63;;;;;;;-143.21;77.25;73655.00;5031818;28;20200;-82
2023/12/09 08:13:35;;;;;;;24.53;12.83;;;;;;;-143.21;77.16;73647.06;5032104;28;20237;-82
2023/12/09 08:16:02;;;;;;;29.40;17.27;;;;;;;-143.21;76.83;73637.13;5032372;28;20245;-81
2023/12/09 08:18:29;;;;;;;29.37;17.57;;;;;;;-143.21;76.38;73619.28;5032668;28;20692;-83
2023/12/09 08:20:56;;;;;;;26.27;15.90;;;;;;;-143.21;75.84;73597.47;5032269;28;20195;-84
2023/12/09 08:23:24;;;;;;;22.43;14.30;;;;;;;-143.21;75.10;73599.44;5038420;28;20191;-90
2023/12/09 08:25:51;;;;;;;22.33;13.17;;;;;;;-143.21;75.16;73593.50;5035542;28;20277;-91
2023/12/09 08:28:19;;;;;;;18.00;11.03;;;;;;;-143.21;74.60;73591.50;5034732;28;20203;-90
2023/12/09 08:30:46;;;;;;;15.47;9.37;;;;;;;-143.21;74.62;73579.59;5032045;28;20206;-85
2023/12/09 08:33:13;;;;;;;12.23;7.87;;;;;;;-143.21;73.45;73571.66;5032238;28;20226;-83
2023/12/09 08:35:40;;;;;;;11.50;7.33;;;;;;;-143.21;72.61;73561.75;5032058;28;20681;-86
2023/12/09 08:38:07;;;;;;;11.87;7.60;;;;;;;-143.21;71.81;73553.81;5032385;28;20203;-89
2023/12/09 08:40:36;;;;;;;11.33;7.50;;;;;;;-143.21;71.78;73551.81;5032464;28;20220;-89
2023/12/09 08:43:03;;;;;;;12.73;8.27;;;;;;;-143.21;71.83;73549.84;5033492;28;20192;-88
2023/12/09 08:45:31;;;;;;;12.60;7.50;;;;;;;-143.21;71.60;73545.88;5023244;28;20232;-81
2023/12/09 08:47:58;;;;;;;14.73;7.53;;;;;;;-143.21;71.63;73539.91;5011899;28;20200;-86
2023/12/09 08:50:25;;;;;;;16.23;9.80;;;;;;;-143.21;71.19;73532.00;5011756;28;20197;-87
2023/12/09 08:52:52;;;;;;;19.03;11.73;;;;;;;-143.21;70.99;73543.88;5012300;28;20228;-87
2023/12/09 08:55:19;;;;;;;24.27;13.70;;;;;;;-143.21;71.23;73553.81;5012780;28;20200;-87
2023/12/09 08:57:48;;;;;;;18.40;10.43;;;;;;;-143.21;71.39;73573.66;5012365;28;20207;-90
2023/12/09 09:00:20;;;;;;;21.80;12.37;;;;;;;-143.21;71.36;73581.59;5012551;28;20281;-90
2023/12/09 09:02:47;;;;;;;24.27;13.77;;;;;;;-143.21;71.89;73591.50;5014671;28;20212;-89
2023/12/09 09:05:14;;;;;;;29.90;16.63;;;;;;;-143.21;72.57;73601.41;5012371;28;20188;-88
2023/12/09 09:07:44;;;;;;;22.33;13.70;;;;;;;-143.21;73.12;73595.47;5012902;28;20200;-90
2023/12/09 09:10:11;;;;;;;20.43;12.87;;;;;;;-143.21;73.20;73591.50;5012477;28;20229;-88
2023/12/09 09:12:38;;;;;;;13.00;7.77;;;;;;;-143.21;72.24;73565.72;5012223;28;20724;-88
2023/12/09 09:15:08;;;;;;;12.90;7.63;;;;;;;-143.21;71.94;73559.75;5018015;28;20261;-88
2023/12/09 09:17:35;;;;;;;14.00;8.80;;;;;;;-143.21;71.86;73541.91;5031920;28;20224;-85
2023/12/09 09:20:03;;;;;;;19.77;10.50;;;;;;;-143.21;71.26;73522.06;5032230;28;20199;-88
2023/12/09 09:22:30;;;;;;;21.57;13.07;;;;;;;-143.21;71.28;73506.19;5031490;28;20195;-87
2023/12/09 09:24:58;;;;;;;27.80;15.50;;;;;;;-143.21;70.71;73494.28;5031610;28;20205;-88
2023/12/09 09:27:23;;;;;;;25.57;14.20;;;;;;;-143.21;71.49;73506.19;5031845;28;20195;-87
2023/12/09 09:29:51;;;;;;;17.97;11.33;;;;;;;-143.21;71.61;73504.22;5031765;28;20576;-87
2023/12/09 09:32:19;;;;;;;15.43;8.97;;;;;;;-143.21;71.98;73488.34;5031944;28;20222;-88
2023/12/09 09:34:46;;;;;;;21.07;11.80;;;;;;;-143.21;71.37;73476.44;5032085;28;20249;-88
2023/12/09 09:37:14;;;;;;;17.93;11.37;;;;;;;-143.21;71.16;73458.59;5033559;28;20691;-86
2023/12/09 09:39:41;;;;;;;17.37;10.23;;;;;;;-143.21;70.94;73458.59;5033944;28;20209;-86
2023/12/09 09:42:14;;;;;;;19.80;11.60;;;;;;;-143.21;70.55;73448.66;5033228;28;20200;-87
2023/12/09 09:44:48;;;;;;;21.87;12.20;;;;;;;-143.21;70.45;73438.75;5029906;28;20196;-88
2023/12/09 09:47:18;;;;;;;20.13;11.93;;;;;;;-143.21;70.72;73432.78;5012361;28;20185;-90
2023/12/09 09:49:47;;;;;;;24.10;12.90;;;;;;;-143.21;70.44;73422.88;5012448;28;20193;-88
2023/12/09 09:52:17;;;;;;;21.93;11.70;;;;;;;-143.21;69.60;73414.94;5012491;28;20229;-89
2023/12/09 09:54:47;;;;;;;19.67;11.13;;;;;;;-143.21;69.59;73416.94;5014485;28;20268;-87
2023/12/09 09:57:14;;;;;;;16.60;9.77;;;;;;;-143.21;69.95;73418.91;5018294;28;20298;-88
2023/12/09 09:59:42;;;;;;;15.07;8.60;;;;;;;-143.21;69.64;73424.84;5015518;28;20205;-89
2023/12/09 10:02:11;;;;;;;11.97;7.90;;;;;;;-143.21;69.98;73416.94;5017363;28;20277;-87
2023/12/09 10:04:38;;;;;;;11.37;7.13;;;;;;;-143.21;69.92;73420.91;5015876;28;20189;-89
2023/12/09 10:07:06;;;;;;;12.90;7.83;;;;;;;-143.21;68.99;73414.94;5015610;28;20205;-88
2023/12/09 10:09:34;;;;;;;12.13;8.10;;;;;;;-143.21;69.81;73418.91;5015756;28;20294;-89
2023/12/09 10:12:01;;;;;;;13.07;7.67;;;;;;;-143.21;69.69;73414.94;5015192;28;20262;-88
2023/12/09 10:14:28;;;;;;;12.90;7.60;;;;;;;-143.21;69.11;73414.94;5015094;28;20197;-88
2023/12/09 10:16:55;;;;;;;13.63;7.10;;;;;;;-143.21;68.83;73410.97;5015620;28;20558;-88
2023/12/09 10:19:22;;;;;;;11.97;7.10;;;;;;;-143.21;68.24;73414.94;5014973;28;20196;-87
2023/12/09 10:21:49;;;;;;;11.40;6.80;;;;;;;-143.21;68.84;73416.94;5015654;28;20265;-87
2023/12/09 10:24:18;;;;;;;12.63;7.03;;;;;;;-143.21;68.29;73405.03;5023574;28;20213;-88
2023/12/09 10:26:45;;;;;;;10.77;6.57;;;;;;;-143.21;68.66;73399.06;5035064;28;20201;-89
2023/12/09 10:29:13;;;;;;;10.13;6.70;;;;;;;-143.21;68.35;73399.06;5035049;28;20192;-88
2023/12/09 10:31:41;;;;;;;12.47;6.77;;;;;;;-143.21;67.78;73387.16;5035894;28;20572;-88
2023/12/09 10:34:11;;;;;;;10.80;6.97;;;;;;;-143.21;67.95;73391.13;5018470;28;20229;-90
2023/12/09 10:36:38;;;;;;;11.23;6.13;;;;;;;-143.21;68.03;73387.16;5035638;28;20219;-89
2023/12/09 10:39:06;;;;;;;10.87;5.80;;;;;;;-143.21;67.71;73387.16;5036929;28;20227;-88
2023/12/09 10:41:34;;;;;;;9.43;6.50;;;;;;;-143.21;67.56;73387.16;5035128;28;20204;-89
2023/12/09 10:44:02;;;;;;;9.13;6.73;;;;;;;-143.21;67.52;73385.19;5034888;28;20581;-89
2023/12/09 10:46:29;;;;;;;11.03;6.90;;;;;;;-143.21;67.53;73395.09;5034611;28;20657;-88
2023/12/09 10:48:56;;;;;;;11.20;6.00;;;;;;;-143.21;67.63;73385.19;5034395;28;20348;-90
2023/12/09 10:51:23;;;;;;;9.10;6.17;;;;;;;-143.21;68.03;73383.19;5034675;28;20192;-89
2023/12/09 10:53:50;;;;;;;12.70;7.27;;;;;;;-143.21;67.52;73375.25;5037211;28;20223;-89
2023/12/09 10:56:17;;;;;;;10.57;6.60;;;;;;;-143.21;67.88;73379.22;5034535;28;20198;-89
2023/12/09 10:58:47;;;;;;;11.70;7.07;;;;;;;-143.21;67.29;73371.28;5035445;28;20206;-90
2023/12/09 11:01:16;;;;;;;11.13;7.57;;;;;;;-143.21;67.98;73381.22;5035029;28;20189;-90
2023/12/09 11:03:43;;;;;;;14.00;8.03;;;;;;;-143.21;68.21;73375.25;5034144;28;20282;-91